Time;durP1;ratioP1;P1;durP2;ratioP2;P2;SDS_P1;SDS_P2;PMS_P1;PMS_P2;Temp;Humidity;BMP_temperature;BMP_pressure;BME280_temperature;BME280_humidity;BME280_pressure;Samples;Min_cycle;Max_cycle;Signal;HPM_P1;HPM_P2
2020/12/19 00:01:12;;;;;;;138.50;41.30;;;3.80;99.90;;;;;;4861397;29;20269;-89
2020/12/19 00:03:37;;;;;;;152.50;43.97;;;3.80;99.90;;;;;;4861232;29;20188;-89
2020/12/19 00:06:07;;;;;;;126.50;41.67;;;3.90;99.90;;;;;;4861292;29;20243;-89
2020/12/19 00:08:33;;;;;;;126.97;41.30;;;3.90;99.90;;;;;;4862718;29;20182;-89
2020/12/19 00:10:58;;;;;;;136.60;44.00;;;3.00;99.90;;;;;;4861014;29;20197;-88
2020/12/19 00:13:24;;;;;;;131.37;43.60;;;3.80;99.90;;;;;;4861351;29;20229;-89
2020/12/19 00:15:49;;;;;;;133.27;42.20;;;4.00;99.90;;;;;;4860693;29;20187;-88
2020/12/19 00:18:15;;;;;;;134.77;43.13;;;3.80;99.90;;;;;;4861121;29;20226;-90
2020/12/19 00:20:41;;;;;;;123.10;42.07;;;3.80;99.90;;;;;;4862094;29;20219;-89
2020/12/19 00:23:06;;;;;;;125.93;40.73;;;3.90;99.90;;;;;;4860588;29;20195;-88
2020/12/19 00:25:32;;;;;;;135.50;41.77;;;3.80;99.90;;;;;;4860875;29;20197;-88
2020/12/19 00:27:58;;;;;;;140.83;45.77;;;3.90;99.90;;;;;;4860525;29;20189;-89
2020/12/19 00:30:23;;;;;;;129.33;39.87;;;4.40;99.90;;;;;;4860544;29;20645;-89
2020/12/19 00:32:49;;;;;;;123.57;40.00;;;3.80;99.90;;;;;;4860910;29;20196;-89
2020/12/19 00:35:14;;;;;;;135.13;43.23;;;4.30;99.90;;;;;;4860451;29;20200;-91
2020/12/19 00:37:42;;;;;;;152.97;48.87;;;3.80;99.90;;;;;;4845398;29;20218;-89
2020/12/19 00:40:08;;;;;;;124.40;42.03;;;3.80;99.90;;;;;;4875461;29;20199;-88
2020/12/19 00:42:38;;;;;;;134.90;45.57;;;3.80;99.90;;;;;;4862113;29;20237;-88
2020/12/19 00:45:07;;;;;;;147.73;48.03;;;4.10;99.90;;;;;;4861520;29;20201;-89
2020/12/19 00:47:35;;;;;;;140.63;45.90;;;3.70;99.90;;;;;;4875939;29;20196;-88
2020/12/19 00:50:01;;;;;;;130.30;41.23;;;4.10;99.90;;;;;;4875513;29;20189;-89
2020/12/19 00:52:26;;;;;;;129.80;40.43;;;3.90;99.90;;;;;;4875777;29;20178;-88
2020/12/19 00:54:52;;;;;;;134.93;43.57;;;3.80;99.90;;;;;;4875702;29;20188;-88
2020/12/19 00:57:18;;;;;;;134.47;41.87;;;3.80;99.90;;;;;;4829647;29;20696;-88
2020/12/19 00:59:43;;;;;;;128.53;41.17;;;3.80;99.90;;;;;;4845303;29;20199;-89
2020/12/19 01:02:09;;;;;;;123.23;40.17;;;3.80;99.90;;;;;;4861380;29;20270;-88
2020/12/19 01:04:35;;;;;;;121.93;41.03;;;3.80;99.90;;;;;;4845023;29;20659;-89
2020/12/19 01:07:00;;;;;;;142.90;45.03;;;3.80;99.90;;;;;;4861328;29;20193;-88
2020/12/19 01:09:26;;;;;;;128.47;39.13;;;3.80;99.90;;;;;;4875673;29;20189;-88
2020/12/19 01:11:52;;;;;;;126.17;38.83;;;3.90;99.90;;;;;;4860192;29;20727;-89
2020/12/19 01:14:17;;;;;;;141.27;43.17;;;3.80;99.90;;;;;;4860228;29;20186;-88
2020/12/19 01:16:43;;;;;;;122.27;41.00;;;3.80;99.90;;;;;;4860094;29;20254;-89
2020/12/19 01:19:08;;;;;;;134.27;41.33;;;4.10;99.90;;;;;;4860053;29;20648;-88
2020/12/19 01:21:34;;;;;;;138.23;41.80;;;4.00;99.90;;;;;;4860032;29;20194;-89
2020/12/19 01:24:00;;;;;;;127.13;41.33;;;3.70;99.90;;;;;;4829076;29;20766;-87
2020/12/19 01:26:26;;;;;;;128.13;40.50;;;3.70;99.90;;;;;;4861559;29;20195;-87
2020/12/19 01:28:52;;;;;;;124.30;39.30;;;3.70;99.90;;;;;;4861046;29;20528;-89
2020/12/19 01:31:20;;;;;;;131.30;41.27;;;3.80;99.90;;;;;;4878300;29;20230;-89
2020/12/19 01:33:46;;;;;;;129.47;40.40;;;3.70;99.90;;;;;;4879598;29;20218;-90
2020/12/19 01:36:15;;;;;;;132.73;43.13;;;4.70;99.90;;;;;;4878128;29;20188;-90
2020/12/19 01:38:41;;;;;;;140.37;43.40;;;3.70;99.90;;;;;;4862669;29;20278;-90
2020/12/19 01:41:07;;;;;;;126.83;38.67;;;3.70;99.90;;;;;;4879031;29;20178;-90
2020/12/19 01:44:05;;;;;;;121.07;40.57;;;3.70;99.90;;;;;;4878122;29;20218;-89
2020/12/19 01:46:54;;;;;;;126.30;40.23;;;3.70;99.90;;;;;;4863295;29;20198;-90
2020/12/19 01:49:24;;;;;;;125.13;39.03;;;3.70;99.90;;;;;;4877915;29;20257;-90
2020/12/19 01:52:01;;;;;;;118.07;38.93;;;3.70;99.90;;;;;;4879048;29;20191;-90
2020/12/19 01:54:28;;;;;;;118.73;40.27;;;3.70;99.90;;;;;;4862494;29;20193;-90
2020/12/19 01:56:58;;;;;;;124.03;40.47;;;3.70;99.90;;;;;;4879283;29;20289;-90
2020/12/19 01:59:26;;;;;;;129.00;40.90;;;3.70;99.90;;;;;;4879060;29;20194;-89
2020/12/19 02:01:56;;;;;;;130.07;40.37;;;4.00;99.90;;;;;;4879373;29;20183;-90
2020/12/19 02:04:24;;;;;;;128.93;39.70;;;4.00;99.90;;;;;;4877702;29;20191;-89
2020/12/19 02:06:51;;;;;;;127.07;40.33;;;3.70;99.90;;;;;;4862477;29;20197;-89
2020/12/19 02:09:19;;;;;;;130.33;42.03;;;3.70;99.90;;;;;;4862098;29;20227;-90
2020/12/19 02:11:46;;;;;;;127.93;40.57;;;4.10;99.90;;;;;;4879147;29;20185;-89
2020/12/19 02:14:12;;;;;;;133.10;43.00;;;3.70;99.90;;;;;;4878734;29;20646;-89
2020/12/19 02:16:38;;;;;;;131.93;41.40;;;3.90;99.90;;;;;;4878945;29;20214;-90
2020/12/19 02:19:14;;;;;;;142.30;46.10;;;3.60;99.90;;;;;;4862513;29;20195;-90
2020/12/19 02:21:43;;;;;;;136.33;43.83;;;3.70;99.90;;;;;;4864209;29;20168;-89
2020/12/19 02:24:09;;;;;;;142.03;43.20;;;3.70;99.90;;;;;;4878804;29;20177;-88
2020/12/19 02:26:35;;;;;;;147.17;42.77;;;3.70;99.90;;;;;;4862338;29;20186;-89
2020/12/19 02:29:00;;;;;;;144.93;43.13;;;3.70;99.90;;;;;;4878804;29;20525;-89
2020/12/19 02:31:26;;;;;;;147.87;41.90;;;3.70;99.90;;;;;;4862318;29;20194;-89
2020/12/19 02:33:52;;;;;;;141.90;43.33;;;3.60;99.90;;;;;;4878871;29;20182;-90
2020/12/19 02:36:17;;;;;;;145.63;42.30;;;3.60;99.90;;;;;;4862151;29;20698;-90
2020/12/19 02:38:43;;;;;;;155.07;44.33;;;3.60;99.90;;;;;;4847214;29;20550;-90
2020/12/19 02:41:09;;;;;;;152.37;41.30;;;4.10;99.90;;;;;;4862284;29;20552;-89
2020/12/19 02:43:34;;;;;;;152.70;41.53;;;3.50;99.90;;;;;;4861781;29;20190;-89
2020/12/19 02:46:00;;;;;;;144.80;37.63;;;3.50;99.90;;;;;;4878735;29;20522;-89
2020/12/19 02:48:25;;;;;;;160.23;40.70;;;3.40;99.90;;;;;;4862271;29;20200;-89
2020/12/19 02:50:51;;;;;;;125.37;35.90;;;4.10;99.90;;;;;;4862113;29;20190;-89
2020/12/19 02:53:17;;;;;;;132.43;34.97;;;3.30;99.90;;;;;;4878449;29;20209;-88
2020/12/19 02:55:43;;;;;;;140.63;37.67;;;3.60;99.90;;;;;;4862105;29;20652;-89
2020/12/19 02:58:09;;;;;;;135.63;35.80;;;3.20;99.90;;;;;;4861785;29;20209;-89
2020/12/19 03:00:34;;;;;;;142.70;33.57;;;3.20;99.90;;;;;;4861844;29;20181;-89
2020/12/19 03:03:00;;;;;;;128.87;32.50;;;3.20;99.90;;;;;;4862616;29;20644;-89
2020/12/19 03:05:26;;;;;;;163.60;35.10;;;3.10;99.90;;;;;;4882018;29;20182;-89
2020/12/19 03:07:51;;;;;;;150.73;34.70;;;3.60;99.90;;;;;;4882146;29;20644;-89
2020/12/19 03:10:17;;;;;;;158.33;33.93;;;3.20;99.90;;;;;;4865252;29;20223;-89
2020/12/19 03:12:43;;;;;;;147.77;32.27;;;3.20;99.90;;;;;;4882210;29;20669;-89
2020/12/19 03:15:08;;;;;;;128.33;33.63;;;3.20;99.90;;;;;;4850059;29;20660;-89
2020/12/19 03:17:34;;;;;;;148.63;32.00;;;4.30;99.90;;;;;;4865027;29;21004;-89
2020/12/19 03:20:00;;;;;;;161.80;32.27;;;3.20;99.90;;;;;;4865375;29;20190;-89
2020/12/19 03:22:25;;;;;;;160.70;32.50;;;3.10;99.90;;;;;;4880682;29;20190;-89
2020/12/19 03:24:51;;;;;;;167.67;30.70;;;3.00;99.90;;;;;;4865123;29;20182;-89
2020/12/19 03:27:17;;;;;;;193.07;31.57;;;3.00;99.90;;;;;;4864740;29;20272;-88
2020/12/19 03:29:42;;;;;;;175.07;31.97;;;3.00;99.90;;;;;;4865133;29;20324;-88
2020/12/19 03:32:08;;;;;;;173.83;33.67;;;2.90;99.90;;;;;;4881859;29;20552;-89
2020/12/19 03:34:34;;;;;;;160.47;31.63;;;3.50;99.90;;;;;;4864652;29;20318;-88
2020/12/19 03:37:00;;;;;;;165.67;28.20;;;3.00;99.90;;;;;;4865185;29;20294;-88
2020/12/19 03:39:26;;;;;;;155.97;29.87;;;3.30;99.90;;;;;;4864687;29;20242;-89
2020/12/19 03:41:51;;;;;;;154.63;28.73;;;3.10;99.90;;;;;;4864782;29;20664;-89
2020/12/19 03:44:17;;;;;;;139.20;30.80;;;3.00;99.90;;;;;;4881635;29;20269;-91
2020/12/19 03:46:43;;;;;;;140.50;30.03;;;3.70;99.90;;;;;;4849306;29;20225;-88
2020/12/19 03:49:08;;;;;;;140.70;31.00;;;3.60;99.90;;;;;;4864781;29;20538;-88
2020/12/19 03:51:34;;;;;;;127.30;29.60;;;3.10;99.90;;;;;;4864634;29;20662;-88
2020/12/19 03:54:00;;;;;;;136.73;29.60;;;3.00;99.90;;;;;;4864970;29;20194;-88
2020/12/19 03:56:26;;;;;;;135.03;29.77;;;3.00;99.90;;;;;;4880742;29;20735;-86
2020/12/19 03:58:52;;;;;;;153.17;32.07;;;3.40;99.90;;;;;;4864666;29;20276;-85
2020/12/19 04:01:17;;;;;;;158.23;32.00;;;3.10;99.90;;;;;;4881348;29;20186;-88
2020/12/19 04:03:43;;;;;;;160.40;34.83;;;3.90;99.90;;;;;;4880824;29;20225;-88
2020/12/19 04:06:09;;;;;;;224.40;48.97;;;3.10;99.90;;;;;;4879905;29;20179;-85
2020/12/19 04:08:34;;;;;;;180.47;31.70;;;3.10;99.90;;;;;;4880741;29;20734;-86
2020/12/19 04:11:00;;;;;;;218.67;47.57;;;3.80;99.90;;;;;;4864496;29;20542;-88
2020/12/19 04:13:26;;;;;;;197.63;38.20;;;3.20;99.90;;;;;;4864091;29;20251;-88
2020/12/19 04:15:52;;;;;;;247.23;48.13;;;3.00;99.90;;;;;;4848524;29;20628;-91
2020/12/19 04:18:17;;;;;;;196.47;40.73;;;4.10;99.90;;;;;;4864505;29;20218;-91
2020/12/19 04:20:43;;;;;;;289.50;57.37;;;3.10;99.90;;;;;;4879951;29;20190;-91
2020/12/19 04:23:08;;;;;;;404.20;89.20;;;4.60;99.90;;;;;;4864171;29;20186;-90
2020/12/19 04:25:34;;;;;;;221.63;40.67;;;3.70;99.90;;;;;;4864112;29;20628;-88
2020/12/19 04:28:00;;;;;;;176.07;34.17;;;3.90;99.90;;;;;;4864336;29;20241;-87
2020/12/19 04:30:25;;;;;;;217.33;40.63;;;3.10;99.90;;;;;;4863603;29;20255;-87
2020/12/19 04:32:51;;;;;;;223.53;49.70;;;3.90;99.90;;;;;;4864088;29;20590;-87
2020/12/19 04:35:17;;;;;;;271.70;49.73;;;3.40;99.90;;;;;;4880536;29;20186;-88
2020/12/19 04:37:43;;;;;;;223.07;36.47;;;3.00;99.90;;;;;;4863463;29;20222;-89
2020/12/19 04:40:08;;;;;;;188.43;31.40;;;3.20;99.90;;;;;;4863743;29;20190;-89
2020/12/19 04:42:35;;;;;;;173.03;28.37;;;3.60;99.90;;;;;;4864770;29;20260;-89
2020/12/19 04:45:05;;;;;;;152.73;29.13;;;3.50;99.90;;;;;;4865721;29;20707;-89
2020/12/19 04:47:31;;;;;;;116.93;23.83;;;3.00;99.90;;;;;;4881089;29;20186;-88
2020/12/19 04:49:59;;;;;;;168.77;27.03;;;2.90;99.90;;;;;;4863711;29;20670;-88
2020/12/19 04:52:25;;;;;;;144.30;26.83;;;2.90;99.90;;;;;;4880320;29;20189;-88
2020/12/19 04:54:51;;;;;;;126.23;25.37;;;3.30;99.90;;;;;;4879882;29;20186;-88
2020/12/19 04:57:19;;;;;;;126.40;27.80;;;2.90;99.90;;;;;;4862712;29;20251;-87
2020/12/19 04:59:45;;;;;;;122.57;28.13;;;3.50;99.90;;;;;;4880038;29;20185;-88
2020/12/19 05:02:12;;;;;;;121.23;24.77;;;2.30;99.90;;;;;;4880252;29;20221;-88
2020/12/19 05:04:39;;;;;;;130.17;25.60;;;4.20;99.90;;;;;;4879829;29;20181;-88
2020/12/19 05:07:07;;;;;;;160.07;25.77;;;3.50;99.90;;;;;;4877094;29;20208;-88
2020/12/19 05:09:40;;;;;;;135.27;26.93;;;3.00;99.90;;;;;;4862081;29;20238;-87
2020/12/19 05:12:08;;;;;;;132.70;29.53;;;3.30;99.90;;;;;;4862703;29;20193;-88
2020/12/19 05:14:34;;;;;;;184.43;37.30;;;3.60;99.90;;;;;;4878517;29;20230;-88
2020/12/19 05:17:01;;;;;;;165.80;26.07;;;3.00;99.90;;;;;;4878815;29;20211;-87
2020/12/19 05:19:27;;;;;;;212.53;29.50;;;3.00;99.90;;;;;;4878254;29;20276;-87
2020/12/19 05:21:56;;;;;;;140.57;23.97;;;3.00;99.90;;;;;;4846678;29;20182;-87
2020/12/19 05:24:30;;;;;;;128.43;22.33;;;3.00;99.90;;;;;;4862131;29;20661;-89
2020/12/19 05:26:57;;;;;;;150.93;23.73;;;3.70;99.90;;;;;;4877628;29;20182;-88
2020/12/19 05:29:23;;;;;;;140.43;22.77;;;3.00;99.90;;;;;;4862037;29;20245;-88
2020/12/19 05:31:59;;;;;;;145.20;24.90;;;2.60;99.90;;;;;;4861699;29;20666;-88
2020/12/19 05:34:26;;;;;;;122.47;26.17;;;3.30;99.90;;;;;;4861376;29;20192;-88
2020/12/19 05:36:53;;;;;;;153.63;20.63;;;2.70;99.90;;;;;;4878539;29;20221;-87
2020/12/19 05:39:19;;;;;;;177.90;23.20;;;2.90;99.90;;;;;;4861825;29;20186;-88
2020/12/19 05:41:46;;;;;;;137.80;20.10;;;2.80;99.90;;;;;;4876784;29;20550;-87
2020/12/19 05:44:13;;;;;;;170.10;20.73;;;2.60;99.90;;;;;;4878427;29;20185;-88
2020/12/19 05:46:40;;;;;;;124.60;23.67;;;3.50;99.90;;;;;;4876525;29;20688;-87
2020/12/19 05:49:08;;;;;;;127.40;21.47;;;3.10;99.90;;;;;;4861810;29;20229;-88
2020/12/19 05:51:36;;;;;;;122.03;20.00;;;3.30;99.90;;;;;;4861748;29;20262;-87
2020/12/19 05:54:15;;;;;;;152.67;17.60;;;2.50;99.90;;;;;;4878179;29;20178;-88
2020/12/19 05:56:45;;;;;;;124.23;18.93;;;2.40;99.90;;;;;;4878208;29;20296;-87
2020/12/19 05:59:18;;;;;;;103.77;15.47;;;2.30;99.90;;;;;;4877712;29;20234;-87
2020/12/19 06:01:48;;;;;;;120.73;18.17;;;2.30;99.90;;;;;;4876536;29;20185;-87
2020/12/19 06:04:16;;;;;;;78.83;17.73;;;2.20;99.90;;;;;;4862339;29;20192;-86
2020/12/19 06:06:48;;;;;;;99.63;17.50;;;3.10;99.90;;;;;;4861215;29;20190;-86
2020/12/19 06:09:15;;;;;;;119.03;17.93;;;2.20;99.90;;;;;;4861538;29;20245;-87
2020/12/19 06:12:09;;;;;;;155.07;22.97;;;2.50;99.90;;;;;;4860544;29;20699;-87
2020/12/19 06:14:40;;;;;;;119.07;14.93;;;2.20;99.90;;;;;;4878260;29;20184;-87
2020/12/19 06:17:16;;;;;;;127.73;18.23;;;3.50;99.90;;;;;;4877925;29;20209;-86
2020/12/19 06:19:46;;;;;;;87.40;17.33;;;2.20;99.90;;;;;;4877776;29;20185;-86
2020/12/19 06:22:12;;;;;;;134.07;15.90;;;2.50;99.90;;;;;;4877492;29;20248;-87
2020/12/19 06:24:48;;;;;;;87.70;14.67;;;2.30;99.90;;;;;;4860700;29;20598;-87
2020/12/19 06:27:22;;;;;;;109.60;17.50;;;2.60;99.90;;;;;;4877999;29;20181;-87
2020/12/19 06:29:50;;;;;;;152.60;15.97;;;2.20;99.90;;;;;;4860636;29;20241;-90
2020/12/19 06:32:23;;;;;;;100.10;20.83;;;3.00;99.90;;;;;;4846068;29;20217;-86
2020/12/19 06:35:10;;;;;;;139.67;17.00;;;3.80;99.90;;;;;;4868630;29;20201;-92
2020/12/19 06:37:43;;;;;;;186.93;17.93;;;2.10;99.90;;;;;;4854950;29;20209;-89
2020/12/19 06:40:13;;;;;;;159.70;23.90;;;2.10;99.90;;;;;;4895942;29;20185;-87
2020/12/19 06:42:40;;;;;;;171.93;26.70;;;2.10;99.90;;;;;;4901065;29;20187;-87
2020/12/19 06:45:24;;;;;;;168.17;29.20;;;2.60;99.90;;;;;;4868798;29;20580;-84
2020/12/19 06:47:51;;;;;;;105.07;23.87;;;2.10;99.90;;;;;;4888017;29;20654;-87
2020/12/19 06:50:18;;;;;;;93.33;17.90;;;3.60;99.90;;;;;;4893651;29;20193;-88
2020/12/19 06:53:00;;;;;;;145.83;30.70;;;2.10;99.90;;;;;;4901599;29;20715;-87
2020/12/19 06:55:28;;;;;;;113.50;29.20;;;2.10;99.90;;;;;;4891397;29;20176;-87
2020/12/19 06:57:58;;;;;;;105.33;15.17;;;4.40;99.90;;;;;;4874464;29;20259;-88
2020/12/19 07:00:28;;;;;;;86.00;15.73;;;2.00;99.90;;;;;;4883217;29;20194;-86
2020/12/19 07:03:02;;;;;;;105.50;18.23;;;2.00;99.90;;;;;;4882698;29;20191;-89
2020/12/19 07:05:34;;;;;;;88.50;13.50;;;2.40;99.90;;;;;;4901275;29;20255;-91
2020/12/19 07:08:18;;;;;;;105.07;13.93;;;1.90;99.90;;;;;;4876312;29;20200;-90
2020/12/19 07:10:44;;;;;;;87.77;14.50;;;2.50;99.90;;;;;;4882023;29;20190;-90
2020/12/19 07:13:09;;;;;;;73.87;13.33;;;1.80;99.90;;;;;;4865205;29;20193;-89
2020/12/19 07:15:41;;;;;;;95.40;16.03;;;1.90;99.90;;;;;;4865337;29;20186;-90
2020/12/19 07:18:24;;;;;;;95.70;14.93;;;2.50;99.90;;;;;;4886617;29;20251;-90
2020/12/19 07:21:09;;;;;;;95.50;13.60;;;1.90;99.90;;;;;;4877817;29;20192;-87
2020/12/19 07:23:41;;;;;;;111.93;19.77;;;3.20;99.90;;;;;;4897103;29;20272;-90
2020/12/19 07:26:07;;;;;;;122.60;20.23;;;1.90;99.90;;;;;;4883099;29;20184;-88
2020/12/19 07:28:33;;;;;;;86.77;22.30;;;4.10;99.90;;;;;;4867993;29;20200;-89
2020/12/19 07:31:00;;;;;;;125.23;23.00;;;2.20;99.90;;;;;;4883112;29;20257;-89
2020/12/19 07:33:26;;;;;;;115.10;18.10;;;2.60;99.90;;;;;;4899892;29;20197;-89
2020/12/19 07:35:51;;;;;;;116.63;23.23;;;2.30;99.90;;;;;;4899016;29;20666;-87
2020/12/19 07:38:20;;;;;;;147.67;21.97;;;2.30;99.90;;;;;;4898820;29;20220;-88
2020/12/19 07:40:56;;;;;;;96.57;22.70;;;2.30;99.90;;;;;;4864003;29;20194;-88
2020/12/19 07:43:22;;;;;;;108.20;24.17;;;3.20;99.90;;;;;;4864505;29;20201;-88
2020/12/19 07:45:55;;;;;;;92.60;23.23;;;2.90;99.90;;;;;;4881081;29;20225;-88
2020/12/19 07:48:20;;;;;;;97.43;22.57;;;2.60;99.90;;;;;;4881149;29;20812;-89
2020/12/19 07:50:46;;;;;;;56.53;17.43;;;2.90;99.90;;;;;;4863643;29;20247;-87
2020/12/19 07:53:14;;;;;;;70.00;16.87;;;3.20;99.90;;;;;;4876569;29;20664;-85
2020/12/19 07:55:49;;;;;;;62.57;17.43;;;2.50;99.90;;;;;;4883297;29;20193;-87
2020/12/19 07:58:16;;;;;;;49.00;16.17;;;3.30;99.90;;;;;;4900202;29;20208;-86
2020/12/19 08:00:44;;;;;;;57.93;17.47;;;3.40;99.90;;;;;;4900236;29;20189;-87
2020/12/19 08:03:11;;;;;;;59.43;19.73;;;2.70;99.90;;;;;;4900032;29;20908;-88
2020/12/19 08:05:37;;;;;;;58.43;21.07;;;3.00;99.90;;;;;;4900549;29;20178;-87
2020/12/19 08:08:03;;;;;;;67.77;22.37;;;2.40;99.90;;;;;;4900389;29;20193;-87
2020/12/19 08:10:28;;;;;;;68.80;24.27;;;2.50;99.90;;;;;;4867239;29;20201;-88
2020/12/19 08:12:55;;;;;;;64.33;22.20;;;2.50;99.90;;;;;;4889259;29;20189;-87
2020/12/19 08:15:25;;;;;;;51.33;18.00;;;2.40;99.90;;;;;;4859518;29;20178;-88
2020/12/19 08:17:57;;;;;;;66.77;26.30;;;2.50;99.90;;;;;;4889272;29;20205;-88
2020/12/19 08:20:31;;;;;;;61.77;22.63;;;2.40;99.90;;;;;;4891896;29;20190;-87
2020/12/19 08:23:02;;;;;;;51.57;19.70;;;2.50;99.90;;;;;;4874313;29;20207;-88
2020/12/19 08:25:28;;;;;;;60.10;22.40;;;2.80;99.90;;;;;;4869924;29;20194;-88
2020/12/19 08:27:54;;;;;;;81.00;30.83;;;2.50;99.90;;;;;;4856985;29;20604;-88
2020/12/19 08:30:28;;;;;;;76.43;28.60;;;2.60;99.90;;;;;;4867265;29;20242;-88
2020/12/19 08:33:06;;;;;;;80.47;28.20;;;2.50;99.90;;;;;;4860169;29;20281;-88
2020/12/19 08:35:33;;;;;;;73.83;26.87;;;2.60;99.90;;;;;;4860452;29;20200;-87
2020/12/19 08:38:10;;;;;;;72.30;26.23;;;2.60;99.90;;;;;;4869731;29;20228;-88
2020/12/19 08:40:44;;;;;;;62.63;26.03;;;2.70;99.90;;;;;;4857789;29;20233;-87
2020/12/19 08:43:12;;;;;;;67.37;27.07;;;2.80;99.90;;;;;;4856924;29;20263;-90
2020/12/19 08:45:42;;;;;;;74.60;26.53;;;2.80;99.90;;;;;;4870051;29;20201;-88
2020/12/19 08:48:17;;;;;;;61.47;24.93;;;2.80;99.90;;;;;;4876192;29;20189;-89
2020/12/19 08:50:44;;;;;;;53.13;21.03;;;2.80;99.90;;;;;;4846565;29;20232;-89
2020/12/19 08:53:17;;;;;;;79.40;27.80;;;3.40;99.90;;;;;;4876283;29;20269;-89
2020/12/19 08:55:44;;;;;;;64.97;26.37;;;2.80;99.90;;;;;;4864936;29;20225;-89
2020/12/19 08:58:22;;;;;;;48.80;20.83;;;4.00;99.90;;;;;;4897700;29;20339;-89
2020/12/19 09:00:48;;;;;;;78.57;25.90;;;2.90;99.90;;;;;;4881072;29;20681;-90
2020/12/19 09:03:14;;;;;;;69.60;26.10;;;2.90;99.90;;;;;;4881207;29;20212;-90
2020/12/19 09:05:43;;;;;;;58.43;23.17;;;3.10;99.90;;;;;;4881736;29;20645;-90
2020/12/19 09:08:10;;;;;;;45.87;19.40;;;3.00;99.90;;;;;;4882003;29;20192;-90
2020/12/19 09:10:37;;;;;;;52.67;20.37;;;2.90;99.90;;;;;;4882075;29;20186;-90
2020/12/19 09:13:36;;;;;;;58.13;23.70;;;3.10;99.90;;;;;;4881921;29;20178;-91
2020/12/19 09:16:09;;;;;;;56.67;25.37;;;3.00;99.90;;;;;;4841997;29;20344;-92
2020/12/19 09:18:39;;;;;;;63.90;27.37;;;3.40;99.90;;;;;;4898902;29;20213;-92
2020/12/19 09:21:09;;;;;;;69.60;27.73;;;3.10;99.90;;;;;;4899342;29;20228;-89
2020/12/19 09:23:36;;;;;;;77.17;30.23;;;5.10;99.90;;;;;;4882019;29;20182;-90
2020/12/19 09:26:04;;;;;;;58.67;24.17;;;3.70;99.90;;;;;;4886825;29;20181;-89
2020/12/19 09:28:30;;;;;;;62.93;25.20;;;3.00;99.90;;;;;;4884904;29;20616;-91
2020/12/19 09:30:57;;;;;;;64.43;26.53;;;4.70;99.90;;;;;;4901980;29;20457;-88
2020/12/19 09:33:23;;;;;;;59.93;23.50;;;3.10;99.90;;;;;;4876737;29;20185;-90
2020/12/19 09:35:50;;;;;;;63.33;26.17;;;3.10;99.90;;;;;;4863989;29;20190;-93
2020/12/19 09:38:17;;;;;;;63.60;24.53;;;3.10;99.90;;;;;;4879865;29;20266;-91
2020/12/19 09:40:43;;;;;;;54.80;21.27;;;3.20;99.90;;;;;;4863269;29;20274;-94
2020/12/19 09:43:09;;;;;;;46.33;21.60;;;3.20;99.90;;;;;;4863287;29;20727;-89
2020/12/19 09:45:35;;;;;;;54.43;23.20;;;3.20;99.90;;;;;;4885853;29;20201;-92
2020/12/19 09:48:02;;;;;;;66.27;26.47;;;3.30;99.90;;;;;;4877177;29;20201;-89
2020/12/19 09:50:28;;;;;;;50.93;22.07;;;3.30;99.90;;;;;;4897591;29;20288;-91
2020/12/19 09:52:54;;;;;;;64.83;27.67;;;4.20;99.90;;;;;;4897317;29;20329;-89
2020/12/19 09:55:23;;;;;;;51.50;23.67;;;1.80;99.90;;;;;;4896990;29;20542;-89
2020/12/19 09:57:52;;;;;;;49.70;21.80;;;3.20;99.90;;;;;;4882071;29;20236;-92
2020/12/19 10:00:17;;;;;;;40.83;18.87;;;3.20;99.90;;;;;;4898209;29;20249;-90
2020/12/19 10:02:46;;;;;;;37.17;18.70;;;3.20;99.90;;;;;;4898485;29;20214;-89
2020/12/19 10:05:12;;;;;;;43.50;19.23;;;3.20;99.90;;;;;;4898695;29;20226;-90
2020/12/19 10:07:41;;;;;;;33.13;17.27;;;3.30;99.90;;;;;;4898558;29;20278;-89
2020/12/19 10:10:19;;;;;;;27.97;14.87;;;3.70;99.90;;;;;;4899710;29;20210;-95
2020/12/19 10:12:44;;;;;;;42.87;19.53;;;3.20;99.90;;;;;;4898500;29;20222;-89
2020/12/19 10:15:11;;;;;;;36.97;18.37;;;3.30;99.90;;;;;;4898386;29;20222;-91
2020/12/19 10:17:38;;;;;;;48.43;22.53;;;3.50;99.90;;;;;;4882628;29;20223;-91
2020/12/19 10:20:06;;;;;;;50.50;22.33;;;3.50;99.90;;;;;;4897823;29;20272;-86
2020/12/19 10:22:32;;;;;;;41.57;17.27;;;3.50;99.90;;;;;;4896891;29;20197;-88
2020/12/19 10:24:57;;;;;;;29.67;15.80;;;4.20;99.90;;;;;;4898250;29;20188;-87
2020/12/19 10:27:23;;;;;;;28.20;14.00;;;3.40;99.90;;;;;;4896990;29;20528;-88
2020/12/19 10:29:49;;;;;;;28.27;14.40;;;3.40;99.90;;;;;;4897867;29;20311;-88
2020/12/19 10:32:14;;;;;;;32.43;15.87;;;4.00;99.90;;;;;;4880863;29;20643;-89
2020/12/19 10:34:40;;;;;;;28.63;16.57;;;4.40;99.90;;;;;;4896027;29;20270;-89
2020/12/19 10:37:08;;;;;;;38.40;19.47;;;3.40;99.90;;;;;;4897647;29;20389;-91
2020/12/19 10:40:32;;;;;;;48.63;24.47;;;3.50;99.90;;;;;;4899214;29;20232;-93
2020/12/19 10:42:58;;;;;;;46.27;21.97;;;5.20;99.90;;;;;;4863477;29;20558;-89
2020/12/19 10:45:40;;;;;;;45.33;22.37;;;3.90;99.90;;;;;;4904171;29;20272;-96
2020/12/19 10:48:13;;;;;;;61.63;27.57;;;3.50;99.90;;;;;;4902341;29;20204;-94
2020/12/19 10:50:40;;;;;;;38.93;20.77;;;3.50;99.90;;;;;;4884569;29;20613;-89
2020/12/19 10:53:06;;;;;;;36.23;18.53;;;3.70;99.90;;;;;;4896853;29;20187;-89
2020/12/19 10:55:37;;;;;;;37.70;18.87;;;3.70;99.90;;;;;;4866583;29;20637;-92
2020/12/19 10:58:03;;;;;;;34.97;18.30;;;3.60;99.90;;;;;;4897282;29;20209;-89
2020/12/19 11:00:28;;;;;;;38.43;19.07;;;3.60;99.90;;;;;;4897886;29;20323;-85
2020/12/19 11:02:54;;;;;;;36.90;19.40;;;3.70;99.90;;;;;;4898221;29;20185;-91
2020/12/19 11:05:20;;;;;;;35.47;16.93;;;3.70;99.90;;;;;;4897004;29;20183;-86
2020/12/19 11:07:48;;;;;;;30.97;16.33;;;3.60;99.90;;;;;;4883470;29;20196;-91
2020/12/19 11:10:32;;;;;;;39.60;19.73;;;3.80;99.90;;;;;;4899603;29;20655;-96
2020/12/19 11:12:58;;;;;;;44.40;21.07;;;3.80;99.90;;;;;;4898027;29;20186;-92
2020/12/19 11:16:02;;;;;;;39.33;19.17;;;3.70;99.90;;;;;;4884932;29;20223;-96
2020/12/19 11:18:33;;;;;;;44.57;20.50;;;4.00;99.90;;;;;;4847544;29;20241;-95
2020/12/19 11:20:58;;;;;;;38.27;20.43;;;3.70;99.90;;;;;;4844718;29;20297;-89
2020/12/19 11:23:27;;;;;;;32.00;16.43;;;3.80;99.90;;;;;;4844644;29;20186;-94
2020/12/19 11:25:54;;;;;;;32.57;16.77;;;3.80;99.90;;;;;;4833642;29;20206;-94
2020/12/19 11:28:20;;;;;;;39.43;20.40;;;3.90;99.90;;;;;;4834166;29;20177;-85
2020/12/19 11:30:48;;;;;;;27.93;15.40;;;4.10;99.90;;;;;;4833399;29;20254;-95
2020/12/19 11:33:14;;;;;;;32.17;17.70;;;4.20;99.90;;;;;;4832565;29;20301;-90
2020/12/19 11:36:00;;;;;;;34.70;18.00;;;5.70;99.90;;;;;;4828579;29;20259;-91
2020/12/19 11:38:26;;;;;;;38.60;21.60;;;4.40;99.90;;;;;;4823198;29;20223;-92
2020/12/19 11:40:52;;;;;;;35.70;19.00;;;4.60;99.90;;;;;;4822951;29;20226;-91
2020/12/19 11:43:18;;;;;;;47.43;22.80;;;4.40;99.90;;;;;;4860322;29;20196;-90
2020/12/19 11:45:47;;;;;;;40.67;20.07;;;4.60;99.90;;;;;;4865697;29;20548;-93
2020/12/19 11:48:12;;;;;;;40.90;20.00;;;4.80;99.90;;;;;;4868066;29;20199;-91
2020/12/19 11:50:38;;;;;;;37.17;18.53;;;5.10;99.90;;;;;;4864463;29;20197;-89
2020/12/19 11:53:04;;;;;;;36.57;20.77;;;5.30;99.90;;;;;;4864531;29;20186;-88
2020/12/19 11:55:29;;;;;;;35.43;17.87;;;5.60;99.90;;;;;;4864458;29;20292;-88
2020/12/19 11:57:55;;;;;;;34.27;20.17;;;5.90;99.90;;;;;;4864365;29;20209;-89
2020/12/19 12:00:21;;;;;;;34.97;19.90;;;6.20;99.90;;;;;;4864109;29;20196;-87
2020/12/19 12:02:46;;;;;;;29.80;17.77;;;6.50;99.90;;;;;;4864361;29;20186;-88
2020/12/19 12:10:49;;;;;;;39.20;22.40;;;5.80;99.90;;;;;;5089532;27;20490;-87
2020/12/19 12:13:17;;;;;;;37.50;21.10;;;6.10;99.90;;;;;;5071888;28;20192;-90
2020/12/19 12:15:45;;;;;;;46.97;24.20;;;5.90;99.90;;;;;;5070302;28;20174;-89
2020/12/19 12:18:10;;;;;;;56.93;27.20;;;6.00;99.90;;;;;;5071197;28;20591;-87
2020/12/19 12:20:36;;;;;;;47.27;25.27;;;6.20;99.90;;;;;;5089502;28;20175;-84
2020/12/19 12:23:02;;;;;;;57.43;26.80;;;6.00;99.90;;;;;;5054646;28;20178;-86
2020/12/19 12:25:27;;;;;;;73.00;40.93;;;6.50;99.90;;;;;;5071232;28;20206;-86
2020/12/19 12:52:51;;;;;;;68.07;29.33;;;8.10;99.90;;;;;;5109643;27;20576;-89
2020/12/19 12:55:24;;;;;;;59.00;26.00;;;6.80;99.90;;;;;;5091635;28;20209;-90
2020/12/19 12:57:50;;;;;;;46.30;22.20;;;7.20;99.90;;;;;;5072146;28;20198;-87
2020/12/19 13:00:16;;;;;;;45.43;21.10;;;6.80;99.90;;;;;;5072323;28;20634;-88
2020/12/19 13:02:44;;;;;;;49.30;21.07;;;6.50;99.90;;;;;;5055606;28;20586;-90
2020/12/19 13:05:12;;;;;;;50.37;22.43;;;6.20;99.90;;;;;;5075155;28;20179;-89
2020/12/19 13:07:43;;;;;;;33.07;16.77;;;6.10;99.90;;;;;;5076289;28;20178;-90